createdAt,value
2022-11-14T00:01:09.673Z,99228.13
2022-11-14T00:03:56.027Z,99237.59
2022-11-14T00:06:42.450Z,99231.81
2022-11-14T00:09:29.591Z,99233.88
2022-11-14T00:12:16.060Z,99224.75
2022-11-14T00:15:02.695Z,99233.84
2022-11-14T00:17:50.281Z,99230.63
2022-11-14T00:20:36.801Z,99220.09
2022-11-14T00:23:23.307Z,99213.72
2022-11-14T00:26:09.819Z,99212.91
2022-11-14T00:28:56.899Z,99211.47
2022-11-14T00:31:43.593Z,99213.84
2022-11-14T00:34:31.252Z,99208.31
2022-11-14T00:37:17.594Z,99211.53
2022-11-14T00:40:04.324Z,99207.97
2022-11-14T00:42:56.777Z,99196.34
2022-11-14T00:45:47.040Z,99190.53
2022-11-14T00:48:33.344Z,99195.72
2022-11-14T00:51:21.153Z,99203.56
2022-11-14T00:54:07.637Z,99206.31
2022-11-14T00:56:53.942Z,99200.31
2022-11-14T00:59:40.062Z,99200.88
2022-11-14T01:02:26.463Z,99191.13
2022-11-14T01:05:13.126Z,99186.91
2022-11-14T01:08:00.835Z,99192.41
2022-11-14T01:10:50.698Z,99191.13
2022-11-14T01:13:42.960Z,99193.59
2022-11-14T01:16:29.612Z,99193.38
2022-11-14T01:19:15.951Z,99184.41
2022-11-14T01:22:06.225Z,99183.22
2022-11-14T01:24:55.198Z,99187.31
2022-11-14T01:27:41.505Z,99183.81
2022-11-14T01:30:28.132Z,99182.69
2022-11-14T01:33:14.690Z,99174.00
2022-11-14T01:36:01.361Z,99181.97
2022-11-14T01:38:48.334Z,99169.81
2022-11-14T01:41:37.291Z,99173.53
2022-11-14T01:44:45.244Z,99159.50
2022-11-14T01:47:34.275Z,99153.72
2022-11-14T01:50:21.112Z,99151.25
2022-11-14T01:53:07.737Z,99140.34
2022-11-14T01:55:57.338Z,99141.22
2022-11-14T01:58:48.023Z,99133.13
2022-11-14T02:01:37.262Z,99131.91
2022-11-14T02:04:26.738Z,99124.06
2022-11-14T02:07:14.849Z,99122.31
2022-11-14T02:10:05.269Z,99119.28
2022-11-14T02:12:53.308Z,99124.25
2022-11-14T02:15:41.696Z,99115.03
2022-11-14T02:18:28.497Z,99117.69
2022-11-14T02:21:16.585Z,99118.53
2022-11-14T02:24:02.916Z,99111.94
2022-11-14T02:26:49.194Z,99109.19
2022-11-14T02:29:36.583Z,99113.09
2022-11-14T02:32:22.668Z,99118.66
2022-11-14T02:35:09.830Z,99120.84
2022-11-14T02:37:57.883Z,99118.03
2022-11-14T02:40:44.064Z,99122.91
2022-11-14T02:43:30.456Z,99130.09
2022-11-14T02:46:17.074Z,99131.69
2022-11-14T02:49:03.719Z,99124.03
2022-11-14T02:51:50.155Z,99116.09
2022-11-14T02:54:38.011Z,99113.28
2022-11-14T02:57:24.715Z,99115.28
2022-11-14T03:00:15.186Z,99112.13
2022-11-14T03:03:01.991Z,99107.59
2022-11-14T03:05:48.364Z,99109.38
2022-11-14T03:08:34.702Z,99101.47
2022-11-14T03:11:22.690Z,99091.50
2022-11-14T03:14:09.027Z,99088.88
2022-11-14T03:16:56.444Z,99097.25
2022-11-14T03:19:42.964Z,99072.09
2022-11-14T03:22:29.742Z,99076.50
2022-11-14T03:25:16.494Z,99089.97
2022-11-14T03:28:04.720Z,99085.69
2022-11-14T03:30:51.183Z,99088.06
2022-11-14T03:33:38.191Z,99097.81
2022-11-14T03:36:24.358Z,99099.16
2022-11-14T03:39:10.771Z,99112.63
2022-11-14T03:41:57.224Z,99110.16
2022-11-14T03:44:45.599Z,99098.47
2022-11-14T03:47:32.274Z,99090.94
2022-11-14T03:50:19.080Z,99085.56
2022-11-14T03:53:05.547Z,99079.56
2022-11-14T03:55:52.153Z,99086.91
2022-11-14T03:58:38.976Z,99092.28
2022-11-14T04:01:27.924Z,99094.19
2022-11-14T04:04:14.728Z,99085.69
2022-11-14T04:07:01.437Z,99092.38
2022-11-14T04:09:48.005Z,99077.75
2022-11-14T04:12:34.523Z,99079.16
2022-11-14T04:15:22.153Z,99072.69
2022-11-14T04:18:09.995Z,99073.34
2022-11-14T04:20:56.520Z,99064.22
2022-11-14T04:23:42.744Z,99070.16
2022-11-14T04:26:29.549Z,99068.59
2022-11-14T04:29:16.203Z,99064.88
2022-11-14T04:32:02.480Z,99060.63
2022-11-14T04:34:50.595Z,99068.28
2022-11-14T04:37:38.677Z,99071.25
2022-11-14T04:40:24.955Z,99077.56
2022-11-14T04:43:11.416Z,99081.13
2022-11-14T04:45:57.665Z,99076.22
2022-11-14T04:48:43.964Z,99066.38
2022-11-14T04:51:31.778Z,99051.72
2022-11-14T04:54:18.238Z,99031.72
2022-11-14T04:57:04.430Z,99032.94
2022-11-14T04:59:50.879Z,99033.16
2022-11-14T05:02:37.131Z,99045.06
2022-11-14T05:05:23.439Z,99037.56
2022-11-14T05:08:11.630Z,99043.28
2022-11-14T05:10:58.148Z,99056.63
2022-11-14T05:13:44.841Z,99064.44
2022-11-14T05:16:31.129Z,99071.19
2022-11-14T05:19:17.598Z,99066.94
2022-11-14T05:22:04.058Z,99070.81
2022-11-14T05:24:51.714Z,99077.09
2022-11-14T05:27:38.196Z,99072.31
2022-11-14T05:30:24.750Z,99065.38
2022-11-14T05:33:11.041Z,99060.28
2022-11-14T05:35:57.303Z,99062.97
2022-11-14T05:38:44.593Z,99059.06
2022-11-14T05:41:32.465Z,99042.59
2022-11-14T05:44:22.111Z,99032.69
2022-11-14T05:47:08.641Z,99038.28
2022-11-14T05:49:55.191Z,99035.47
2022-11-14T05:52:41.501Z,99052.47
2022-11-14T05:55:27.917Z,99056.75
2022-11-14T05:58:15.958Z,99069.13
2022-11-14T06:01:16.770Z,99074.66
2022-11-14T06:04:22.363Z,99074.03
2022-11-14T06:07:09.051Z,99077.16
2022-11-14T06:09:55.300Z,99074.53
2022-11-14T06:12:41.726Z,99063.56
2022-11-14T06:15:29.680Z,99058.41
2022-11-14T06:18:16.023Z,99060.00
2022-11-14T06:21:04.149Z,99072.69
2022-11-14T06:23:51.430Z,99073.09
2022-11-14T06:26:37.638Z,99068.81
2022-11-14T06:29:24.256Z,99066.81
2022-11-14T06:32:12.052Z,99066.44
2022-11-14T06:34:58.880Z,99076.31
2022-11-14T06:37:45.184Z,99076.31
2022-11-14T06:40:31.504Z,99084.59
2022-11-14T06:43:17.761Z,99064.06
2022-11-14T06:46:05.033Z,99073.97
2022-11-14T06:48:52.945Z,99075.16
2022-11-14T06:51:39.095Z,99062.13
2022-11-14T06:54:25.405Z,99082.28
2022-11-14T06:57:12.533Z,99081.88
2022-11-14T06:59:59.158Z,99093.31
2022-11-14T07:02:46.902Z,99095.31
2022-11-14T07:05:34.829Z,99083.91
2022-11-14T07:08:21.509Z,99083.50
2022-11-14T07:11:09.918Z,99081.13
2022-11-14T07:13:57.558Z,99078.34
2022-11-14T07:16:43.853Z,99086.25
2022-11-14T07:19:30.351Z,99085.47
2022-11-14T07:22:18.317Z,99075.22
2022-11-14T07:25:05.300Z,99075.59
2022-11-14T07:27:51.835Z,99068.06
2022-11-14T07:30:38.290Z,99074.41
2022-11-14T07:33:24.876Z,99084.28
2022-11-14T07:36:12.550Z,99095.78
2022-11-14T07:39:00.129Z,99091.41
2022-11-14T07:41:46.685Z,99096.53
2022-11-14T07:44:33.711Z,99086.25
2022-11-14T07:47:20.714Z,99081.91
2022-11-14T07:50:08.516Z,99084.66
2022-11-14T07:52:57.600Z,99102.09
2022-11-14T07:55:46.117Z,99101.66
2022-11-14T07:58:33.167Z,99103.66
2022-11-14T08:01:20.600Z,99111.19
2022-11-14T08:04:07.391Z,99111.59
2022-11-14T08:06:54.583Z,99115.53
2022-11-14T08:09:41.427Z,99112.75
2022-11-14T08:12:29.090Z,99113.94
2022-11-14T08:15:15.682Z,99119.09
2022-11-14T08:18:02.740Z,99123.84
2022-11-14T08:20:49.013Z,99109.97
2022-11-14T08:23:35.330Z,99105.16
2022-11-14T08:26:21.895Z,99113.97
2022-11-14T08:29:09.339Z,99119.50
2022-11-14T08:31:59.972Z,99105.63
2022-11-14T08:34:46.843Z,99103.63
2022-11-14T08:37:33.367Z,99108.38
2022-11-14T08:40:20.558Z,99096.53
2022-11-14T08:43:07.191Z,99099.59
2022-11-14T08:46:01.556Z,99094.91
2022-11-14T08:48:48.422Z,99095.28
2022-11-14T08:51:36.542Z,99121.38
2022-11-14T08:54:22.984Z,99122.97
2022-11-14T08:57:09.395Z,99115.88
2022-11-14T08:59:56.427Z,99117.44
2022-11-14T09:02:44.181Z,99131.72
2022-11-14T09:05:31.877Z,99119.44
2022-11-14T09:08:18.402Z,99118.59
2022-11-14T09:11:09.251Z,99117.00
2022-11-14T09:13:56.159Z,99128.88
2022-11-14T09:16:42.275Z,99121.31
2022-11-14T09:19:29.955Z,99112.09
2022-11-14T09:22:16.531Z,99111.50
2022-11-14T09:25:03.144Z,99109.34
2022-11-14T09:27:49.664Z,99117.41
2022-11-14T09:30:37.217Z,99118.16
2022-11-14T09:33:23.610Z,99128.28
2022-11-14T09:36:15.791Z,99130.78
2022-11-14T09:39:02.453Z,99133.47
2022-11-14T09:42:02.185Z,99145.31
2022-11-14T09:44:57.437Z,99139.78
2022-11-14T09:47:47.088Z,99142.78
2022-11-14T09:50:38.385Z,99140.41
2022-11-14T09:53:32.760Z,99150.00
2022-11-14T09:56:23.860Z,99146.97
2022-11-14T09:59:12.310Z,99140.97
2022-11-14T10:02:03.691Z,99129.22
2022-11-14T10:05:02.983Z,99119.81
2022-11-14T10:08:06.388Z,99121.41
2022-11-14T10:10:56.987Z,99116.38
2022-11-14T10:14:09.373Z,99128.47
2022-11-14T10:17:21.954Z,99121.91
2022-11-14T10:20:20.288Z,99118.56
2022-11-14T10:23:24.220Z,99125.00
2022-11-14T10:26:18.420Z,99125.69
2022-11-14T10:29:33.943Z,99128.78
2022-11-14T10:32:35.275Z,99136.69
2022-11-14T10:35:29.786Z,99126.69
2022-11-14T10:38:26.036Z,99126.31
2022-11-14T10:41:34.812Z,99128.06
2022-11-14T10:44:27.574Z,99120.69
2022-11-14T10:47:18.135Z,99123.28
2022-11-14T10:50:16.148Z,99125.16
2022-11-14T10:53:11.765Z,99128.69
2022-11-14T10:56:06.673Z,99122.50
2022-11-14T10:58:54.908Z,99131.28
2022-11-14T11:01:43.329Z,99119.53
2022-11-14T11:04:31.444Z,99117.81
2022-11-14T11:07:41.541Z,99120.25
2022-11-14T11:10:45.562Z,99116.88
2022-11-14T11:13:34.633Z,99125.69
2022-11-14T11:16:24.421Z,99129.84
2022-11-14T11:19:25.181Z,99129.75
2022-11-14T11:22:25.233Z,99116.38
2022-11-14T11:25:26.340Z,99116.78
2022-11-14T11:28:14.973Z,99122.09
2022-11-14T11:31:02.819Z,99105.84
2022-11-14T11:33:50.929Z,99102.94
2022-11-14T11:36:41.909Z,99096.91
2022-11-14T11:39:31.711Z,99089.66
2022-11-14T11:42:23.788Z,99082.13
2022-11-14T11:45:17.553Z,99090.97
2022-11-14T11:48:14.864Z,99083.59
2022-11-14T11:51:04.651Z,99085.97
2022-11-14T11:53:59.427Z,99080.97
2022-11-14T11:56:48.748Z,99077.38
2022-11-14T11:59:43.119Z,99079.50
2022-11-14T12:02:29.908Z,99070.25
2022-11-14T12:05:21.672Z,99055.28
2022-11-14T12:08:21.296Z,99055.72
2022-11-14T12:11:13.063Z,99051.34
2022-11-14T12:14:33.569Z,99047.84
2022-11-14T12:17:52.292Z,99059.91
2022-11-14T12:21:19.707Z,99057.47
2022-11-14T12:24:53.623Z,99057.91
2022-11-14T12:27:57.616Z,99057.31
2022-11-14T12:30:49.343Z,99053.31
2022-11-14T12:33:38.939Z,99050.81
2022-11-14T12:36:29.933Z,99051.09
2022-11-14T12:39:25.341Z,99057.44
2022-11-14T12:42:19.831Z,99053.59
2022-11-14T12:45:43.988Z,99045.31
2022-11-14T12:48:33.480Z,99032.31
2022-11-14T12:51:51.333Z,99034.31
2022-11-14T12:54:45.605Z,99024.91
2022-11-14T12:57:51.000Z,99018.59
2022-11-14T13:00:40.838Z,99021.06
2022-11-14T13:03:42.127Z,99017.13
2022-11-14T13:06:40.631Z,99013.34
2022-11-14T13:09:34.399Z,99009.09
2022-11-14T13:12:48.004Z,98999.91
2022-11-14T13:16:05.064Z,99001.22
2022-11-14T13:19:14.801Z,98997.91
2022-11-14T13:22:34.581Z,98980.53
2022-11-14T13:25:24.945Z,98980.69
2022-11-14T13:28:46.540Z,98981.25
2022-11-14T13:31:51.162Z,98979.91
2022-11-14T13:34:43.615Z,98981.00
2022-11-14T13:37:49.634Z,98985.00
2022-11-14T13:40:42.809Z,98981.53
2022-11-14T13:43:46.586Z,98967.72
2022-11-14T13:46:49.728Z,98975.94
2022-11-14T13:49:55.048Z,98971.81
2022-11-14T13:52:43.918Z,98968.00
2022-11-14T13:55:39.197Z,98968.34
2022-11-14T13:59:01.564Z,98956.56
2022-11-14T14:02:03.433Z,98959.69
2022-11-14T14:05:03.692Z,98947.28
2022-11-14T14:07:59.421Z,98942.03
2022-11-14T14:11:01.957Z,98939.00
2022-11-14T14:14:00.524Z,98942.72
2022-11-14T14:16:53.195Z,98937.19
2022-11-14T14:19:49.499Z,98937.44
2022-11-14T14:22:46.418Z,98935.00
2022-11-14T14:25:42.490Z,98934.34
2022-11-14T14:28:37.675Z,98933.09
2022-11-14T14:31:25.410Z,98932.72
2022-11-14T14:34:25.623Z,98931.81
2022-11-14T14:37:23.381Z,98924.84
2022-11-14T14:40:26.613Z,98938.06
2022-11-14T14:43:27.661Z,98935.03
2022-11-14T14:46:14.366Z,98937.75
2022-11-14T14:49:04.108Z,98923.19
2022-11-14T14:51:54.508Z,98930.38
2022-11-14T14:54:55.924Z,98933.84
2022-11-14T14:57:43.522Z,98924.56
2022-11-14T15:00:29.926Z,98929.28
2022-11-14T15:03:16.435Z,98930.16
2022-11-14T15:06:05.323Z,98915.34
2022-11-14T15:08:52.079Z,98921.84
2022-11-14T15:11:47.234Z,98917.88
2022-11-14T15:14:56.180Z,98914.28
2022-11-14T15:17:43.729Z,98921.41
2022-11-14T15:20:31.340Z,98925.50
2022-11-14T15:23:21.354Z,98918.53
2022-11-14T15:26:17.813Z,98925.88
2022-11-14T15:29:07.698Z,98916.84
2022-11-14T15:31:57.679Z,98922.28
2022-11-14T15:34:43.852Z,98923.16
2022-11-14T15:37:30.413Z,98920.72
2022-11-14T15:40:21.282Z,98933.00
2022-11-14T15:43:38.677Z,98911.72
2022-11-14T15:46:28.358Z,98924.78
2022-11-14T15:49:22.829Z,98918.06
2022-11-14T15:52:21.186Z,98919.97
2022-11-14T15:55:14.628Z,98908.44
2022-11-14T15:58:26.489Z,98918.38
2022-11-14T16:01:17.214Z,98920.47
2022-11-14T16:04:04.160Z,98925.34
2022-11-14T16:06:51.704Z,98928.28
2022-11-14T16:09:38.136Z,98928.69
2022-11-14T16:12:24.629Z,98935.53
2022-11-14T16:15:11.715Z,98929.66
2022-11-14T16:17:58.196Z,98936.66
2022-11-14T16:20:44.969Z,98935.06
2022-11-14T16:23:32.797Z,98933.47
2022-11-14T16:26:19.184Z,98930.00
2022-11-14T16:29:05.517Z,98936.06
2022-11-14T16:31:52.784Z,98935.38
2022-11-14T16:34:39.343Z,98933.78
2022-11-14T16:37:26.068Z,98940.22
2022-11-14T16:40:16.840Z,98939.06
2022-11-14T16:43:03.547Z,98932.19
2022-11-14T16:45:59.741Z,98933.53
2022-11-14T16:48:46.104Z,98936.28
2022-11-14T16:51:48.237Z,98939.91
2022-11-14T16:54:36.090Z,98941.25
2022-11-14T16:57:23.983Z,98936.91
2022-11-14T17:00:13.737Z,98927.81
2022-11-14T17:03:00.086Z,98924.31
2022-11-14T17:05:47.680Z,98922.56
2022-11-14T17:08:34.868Z,98932.88
2022-11-14T17:11:21.325Z,98935.75
2022-11-14T17:14:09.106Z,98933.97
2022-11-14T17:16:55.686Z,98936.28
2022-11-14T17:19:46.100Z,98936.91
2022-11-14T17:22:32.491Z,98934.34
2022-11-14T17:25:19.094Z,98938.91
2022-11-14T17:28:05.812Z,98941.59
2022-11-14T17:30:53.420Z,98943.97
2022-11-14T17:33:40.059Z,98946.47
2022-11-14T17:36:28.748Z,98946.13
2022-11-14T17:39:15.424Z,98949.25
2022-11-14T17:42:01.964Z,98949.25
2022-11-14T17:44:48.454Z,98947.00
2022-11-14T17:47:36.560Z,98947.69
2022-11-14T17:50:23.187Z,98940.19
2022-11-14T17:53:09.301Z,98946.78
2022-11-14T17:55:57.577Z,98948.72
2022-11-14T17:58:45.022Z,98942.94
2022-11-14T18:01:31.727Z,98952.97
2022-11-14T18:04:19.729Z,98953.59
2022-11-14T18:07:06.083Z,98946.06
2022-11-14T18:09:52.419Z,98949.38
2022-11-14T18:12:38.913Z,98952.91
2022-11-14T18:15:27.922Z,98953.59
2022-11-14T18:18:14.700Z,98955.06
2022-11-14T18:21:07.765Z,98948.44
2022-11-14T18:23:55.758Z,98954.66
2022-11-14T18:26:42.528Z,98957.19
2022-11-14T18:29:30.414Z,98957.13
2022-11-14T18:32:16.985Z,98957.91
2022-11-14T18:35:03.208Z,98965.34
2022-11-14T18:37:50.936Z,98956.31
2022-11-14T18:40:37.502Z,98956.75
2022-11-14T18:43:23.895Z,98962.34
2022-11-14T18:46:13.643Z,98961.28
2022-11-14T18:49:00.011Z,98951.94
2022-11-14T18:51:46.590Z,98953.16
2022-11-14T18:54:34.571Z,98943.66
2022-11-14T18:57:20.802Z,98954.22
2022-11-14T19:00:08.904Z,98944.81
2022-11-14T19:02:55.206Z,98956.22
2022-11-14T19:05:41.340Z,98953.13
2022-11-14T19:08:27.826Z,98943.03
2022-11-14T19:11:34.824Z,98945.56
2022-11-14T19:14:21.627Z,98948.00
2022-11-14T19:17:08.230Z,98954.41
2022-11-14T19:19:54.549Z,98952.81
2022-11-14T19:22:41.524Z,98957.88
2022-11-14T19:25:28.117Z,98950.38
2022-11-14T19:28:16.250Z,98952.31
2022-11-14T19:31:03.198Z,98951.66
2022-11-14T19:33:50.006Z,98948.94
2022-11-14T19:39:47.392Z,98958.44
2022-11-14T19:42:33.928Z,98959.72
2022-11-14T19:45:21.732Z,98952.25
2022-11-14T19:48:08.164Z,98951.13
2022-11-14T19:51:00.704Z,98959.91
2022-11-14T19:53:47.462Z,98955.75
2022-11-14T19:56:33.908Z,98967.09
2022-11-14T19:59:24.374Z,98966.25
2022-11-14T20:02:15.518Z,98953.47
2022-11-14T20:05:01.979Z,98952.72
2022-11-14T20:07:48.251Z,98959.09
2022-11-14T20:10:47.522Z,98954.66
2022-11-14T20:13:36.386Z,98959.03
2022-11-14T20:16:24.642Z,98959.75
2022-11-14T20:19:13.622Z,98960.22
2022-11-14T20:22:00.210Z,98951.88
2022-11-14T20:24:47.016Z,98952.78
2022-11-14T20:27:33.476Z,98954.53
2022-11-14T20:30:20.037Z,98966.44
2022-11-14T20:33:06.880Z,98957.06
2022-11-14T20:35:54.730Z,98960.84
2022-11-14T20:38:41.164Z,98947.88
2022-11-14T20:41:27.642Z,98951.56
2022-11-14T20:44:14.511Z,98957.03
2022-11-14T20:47:00.629Z,98953.56
2022-11-14T20:49:47.535Z,98961.03
2022-11-14T20:52:35.850Z,98964.09
2022-11-14T20:55:22.347Z,98954.56
2022-11-14T20:58:08.622Z,98962.78
2022-11-14T21:00:55.162Z,98958.84
2022-11-14T21:03:42.120Z,98957.31
2022-11-14T21:06:28.671Z,98962.19
2022-11-14T21:09:16.370Z,98969.50
2022-11-14T21:12:02.996Z,98968.13
2022-11-14T21:14:49.259Z,98968.84
2022-11-14T21:17:35.913Z,98964.53
2022-11-14T21:20:22.498Z,98969.59
2022-11-14T21:23:08.783Z,98973.25
2022-11-14T21:26:04.127Z,98966.84
2022-11-14T21:28:53.468Z,98966.47
2022-11-14T21:31:42.950Z,98966.06
2022-11-14T21:34:29.519Z,98969.94
2022-11-14T21:37:15.981Z,98964.06
2022-11-14T21:40:02.209Z,98964.84
2022-11-14T21:42:49.889Z,98966.34
2022-11-14T21:45:36.514Z,98961.91
2022-11-14T21:48:23.111Z,98955.66
2022-11-14T21:51:12.780Z,98952.97
2022-11-14T21:53:59.379Z,98950.78
2022-11-14T21:56:45.889Z,98960.03
2022-11-14T21:59:33.809Z,98961.59
2022-11-14T22:02:37.674Z,98952.28
2022-11-14T22:05:24.036Z,98950.03
2022-11-14T22:08:10.402Z,98939.41
2022-11-14T22:11:02.269Z,98950.41
2022-11-14T22:13:49.008Z,98955.16
2022-11-14T22:16:36.818Z,98956.59
2022-11-14T22:19:23.392Z,98960.06
2022-11-14T22:22:10.096Z,98958.47
2022-11-14T22:24:56.311Z,98957.06
2022-11-14T22:27:42.603Z,98967.50
2022-11-14T22:30:29.188Z,98963.09
2022-11-14T22:33:16.905Z,98960.28
2022-11-14T22:36:04.777Z,98961.28
2022-11-14T22:38:53.495Z,98959.81
2022-11-14T22:41:39.782Z,98961.75
2022-11-14T22:44:26.143Z,98959.59
2022-11-14T22:47:12.527Z,98964.44
2022-11-14T22:50:00.397Z,98974.00
2022-11-14T22:52:46.744Z,98961.53
2022-11-14T22:55:33.222Z,98961.25
2022-11-14T22:58:19.566Z,98959.72
2022-11-14T23:01:12.229Z,98953.91
2022-11-14T23:04:00.373Z,98953.38
2022-11-14T23:06:48.639Z,98961.16
2022-11-14T23:09:35.425Z,98964.28
2022-11-14T23:12:22.063Z,98958.81
2022-11-14T23:15:09.028Z,98959.31
2022-11-14T23:17:55.585Z,98949.50
2022-11-14T23:20:41.821Z,98960.03
2022-11-14T23:23:29.685Z,98953.56
2022-11-14T23:26:18.240Z,98963.81
2022-11-14T23:29:05.525Z,98950.50
2022-11-14T23:31:52.018Z,98958.06
2022-11-14T23:34:38.626Z,98957.94
2022-11-14T23:37:25.676Z,98957.41
2022-11-14T23:40:13.841Z,98954.50
2022-11-14T23:43:00.277Z,98949.31
2022-11-14T23:45:48.208Z,98947.41
2022-11-14T23:48:34.542Z,98951.00
2022-11-14T23:51:21.120Z,98947.81
2022-11-14T23:54:07.559Z,98954.63
2022-11-14T23:56:57.779Z,98942.06
2022-11-14T23:59:47.877Z,98943.94
